createdAt,value
2019-05-12T00:01:15.418Z,0.40
2019-05-12T00:03:49.620Z,0.50
2019-05-12T00:06:22.194Z,0.60
2019-05-12T00:08:54.778Z,0.60
2019-05-12T00:11:28.736Z,0.63
2019-05-12T00:14:01.466Z,0.90
2019-05-12T00:16:33.975Z,0.60
2019-05-12T00:19:09.083Z,0.53
2019-05-12T00:21:41.062Z,0.80
2019-05-12T00:24:13.652Z,0.93
2019-05-12T00:26:47.793Z,0.80
2019-05-12T00:29:20.727Z,0.70
2019-05-12T00:31:53.167Z,0.80
2019-05-12T00:34:25.772Z,0.80
2019-05-12T00:36:58.479Z,0.83
2019-05-12T00:39:31.025Z,0.83
2019-05-12T00:42:03.452Z,0.70
2019-05-12T00:44:35.984Z,0.60
2019-05-12T00:47:08.677Z,0.60
2019-05-12T00:49:41.470Z,0.80
2019-05-12T00:52:14.181Z,0.50
2019-05-12T00:54:48.265Z,0.60
2019-05-12T00:57:20.852Z,0.50
2019-05-12T00:59:53.319Z,0.50
2019-05-12T01:02:25.962Z,0.40
2019-05-12T01:04:58.376Z,0.53
2019-05-12T01:07:31.293Z,1.03
2019-05-12T01:10:05.024Z,1.00
2019-05-12T01:12:38.410Z,0.60
2019-05-12T01:15:11.737Z,0.50
2019-05-12T01:18:02.982Z,0.50
2019-05-12T01:20:35.578Z,0.50
2019-05-12T01:23:08.811Z,0.53
2019-05-12T01:25:41.530Z,0.40
2019-05-12T01:28:14.203Z,0.53
2019-05-12T01:30:47.962Z,0.53
2019-05-12T01:33:20.547Z,0.30
2019-05-12T01:35:53.203Z,0.43
2019-05-12T01:38:25.916Z,0.50
2019-05-12T01:40:58.758Z,0.50
2019-05-12T01:43:31.561Z,0.63
2019-05-12T01:46:04.009Z,0.90
2019-05-12T01:48:37.777Z,0.50
2019-05-12T01:51:10.636Z,0.50
2019-05-12T01:53:43.102Z,0.60
2019-05-12T01:56:18.095Z,0.50
2019-05-12T01:58:49.854Z,0.50
2019-05-12T02:01:22.796Z,0.67
2019-05-12T02:03:55.663Z,0.83
2019-05-12T02:06:28.137Z,0.60
2019-05-12T02:09:02.291Z,0.80
2019-05-12T02:11:34.615Z,0.90
2019-05-12T02:14:09.280Z,0.60
2019-05-12T02:16:41.812Z,0.50
2019-05-12T02:19:14.419Z,0.90
2019-05-12T02:21:48.713Z,0.83
2019-05-12T02:24:26.679Z,0.77
2019-05-12T02:26:55.256Z,0.87
2019-05-12T02:29:28.539Z,0.97
2019-05-12T02:32:01.157Z,0.90
2019-05-12T02:34:35.010Z,1.10
2019-05-12T02:37:07.798Z,1.20
2019-05-12T02:39:40.716Z,1.10
2019-05-12T02:42:15.595Z,0.80
2019-05-12T02:44:47.641Z,0.80
2019-05-12T02:47:20.272Z,1.00
2019-05-12T02:49:54.452Z,1.10
2019-05-12T02:52:27.052Z,1.20
2019-05-12T02:55:01.059Z,1.10
2019-05-12T02:57:36.579Z,1.10
2019-05-12T03:00:09.486Z,0.90
2019-05-12T03:02:44.392Z,1.10
2019-05-12T03:05:17.105Z,1.30
2019-05-12T03:07:51.509Z,1.40
2019-05-12T03:10:25.261Z,1.30
2019-05-12T03:12:57.726Z,1.17
2019-05-12T03:15:30.348Z,1.20
2019-05-12T03:18:06.116Z,1.50
2019-05-12T03:20:36.938Z,1.50
2019-05-12T03:23:09.364Z,1.43
2019-05-12T03:25:45.393Z,1.60
2019-05-12T03:28:16.262Z,1.77
2019-05-12T03:30:49.494Z,1.73
2019-05-12T03:33:33.139Z,1.50
2019-05-12T03:36:00.828Z,1.60
2019-05-12T03:38:30.708Z,1.40
2019-05-12T03:41:05.352Z,1.90
2019-05-12T03:43:37.311Z,1.57
2019-05-12T03:46:10.004Z,1.60
2019-05-12T03:48:45.388Z,1.53
2019-05-12T03:51:17.006Z,1.70
2019-05-12T03:53:49.661Z,1.37
2019-05-12T03:56:25.538Z,1.20
2019-05-12T03:58:56.348Z,1.50
2019-05-12T04:01:28.761Z,1.50
2019-05-12T04:04:01.202Z,1.57
2019-05-12T04:06:34.624Z,1.40
2019-05-12T04:09:09.799Z,1.60
2019-05-12T04:11:44.434Z,1.37
2019-05-12T04:14:16.553Z,1.80
2019-05-12T04:16:48.983Z,1.43
2019-05-12T04:19:21.370Z,1.67
2019-05-12T04:21:54.778Z,1.73
2019-05-12T04:24:27.243Z,1.30
2019-05-12T04:26:59.915Z,1.50
2019-05-12T04:29:34.906Z,1.50
2019-05-12T04:32:06.444Z,1.33
2019-05-12T04:34:39.073Z,1.37
2019-05-12T04:37:14.574Z,1.33
2019-05-12T04:39:45.981Z,1.20
2019-05-12T04:42:18.472Z,1.30
2019-05-12T04:44:51.192Z,1.30
2019-05-12T04:47:25.298Z,1.27
2019-05-12T04:49:58.287Z,10.57
2019-05-12T04:52:30.879Z,11.10
2019-05-12T04:55:04.750Z,13.73
2019-05-12T04:57:37.382Z,11.60
2019-05-12T05:00:10.235Z,12.97
2019-05-12T05:02:45.568Z,4.27
2019-05-12T05:05:17.322Z,6.37
2019-05-12T05:07:49.166Z,17.20
2019-05-12T05:10:21.434Z,10.70
2019-05-12T05:12:54.248Z,18.53
2019-05-12T05:15:26.439Z,3.63
2019-05-12T05:17:58.290Z,2.43
2019-05-12T05:20:30.298Z,1.80
2019-05-12T05:23:03.505Z,1.63
2019-05-12T05:25:36.918Z,1.40
2019-05-12T05:28:08.885Z,1.20
2019-05-12T05:30:41.022Z,1.27
2019-05-12T05:33:14.538Z,1.60
2019-05-12T05:35:46.966Z,1.23
2019-05-12T05:38:20.848Z,1.67
2019-05-12T05:40:54.165Z,1.20
2019-05-12T05:43:26.588Z,1.40
2019-05-12T05:46:02.489Z,1.60
2019-05-12T05:48:35.099Z,1.33
2019-05-12T05:51:09.051Z,1.20
2019-05-12T05:53:43.537Z,1.27
2019-05-12T05:56:18.199Z,1.40
2019-05-12T05:58:51.848Z,1.37
2019-05-12T06:01:24.503Z,1.23
2019-05-12T06:03:58.398Z,1.40
2019-05-12T06:06:34.149Z,1.10
2019-05-12T06:09:08.395Z,1.27
2019-05-12T06:11:40.551Z,1.30
2019-05-12T06:14:14.062Z,1.20
2019-05-12T06:16:46.351Z,1.10
2019-05-12T06:19:18.527Z,1.00
2019-05-12T06:21:53.304Z,1.07
2019-05-12T06:24:26.954Z,1.17
2019-05-12T06:27:00.812Z,1.10
2019-05-12T06:29:33.404Z,1.20
2019-05-12T06:32:10.648Z,1.00
2019-05-12T06:34:40.498Z,1.17
2019-05-12T06:37:17.115Z,1.00
2019-05-12T06:39:51.025Z,1.40
2019-05-12T06:42:24.214Z,0.90
2019-05-12T06:44:58.180Z,1.10
2019-05-12T06:47:29.752Z,0.90
2019-05-12T06:50:03.914Z,0.90
2019-05-12T06:52:38.650Z,0.93
2019-05-12T06:55:14.566Z,0.90
2019-05-12T06:57:50.171Z,0.90
2019-05-12T07:00:22.307Z,1.00
2019-05-12T07:02:55.354Z,1.10
2019-05-12T07:05:28.069Z,1.10
2019-05-12T07:08:03.996Z,0.60
2019-05-12T07:11:01.942Z,0.83
2019-05-12T07:13:29.372Z,0.93
2019-05-12T07:16:16.612Z,0.70
2019-05-12T07:18:49.171Z,0.93
2019-05-12T07:21:24.883Z,1.10
2019-05-12T07:23:55.118Z,1.00
2019-05-12T07:26:27.131Z,1.00
2019-05-12T07:28:59.261Z,0.80
2019-05-12T07:31:33.372Z,3.17
2019-05-12T07:34:07.904Z,6.33
2019-05-12T07:36:40.526Z,5.40
2019-05-12T07:39:13.547Z,1.47
2019-05-12T07:41:51.033Z,1.10
2019-05-12T07:44:34.402Z,1.07
2019-05-12T07:47:00.618Z,1.03
2019-05-12T07:49:37.779Z,1.20
2019-05-12T07:52:06.317Z,1.47
2019-05-12T07:54:39.619Z,1.37
2019-05-12T07:57:17.175Z,0.93
2019-05-12T07:59:45.665Z,1.40
2019-05-12T08:02:23.186Z,1.07
2019-05-12T08:04:54.065Z,1.33
2019-05-12T08:07:29.746Z,1.20
2019-05-12T08:09:59.497Z,1.13
2019-05-12T08:12:33.964Z,1.23
2019-05-12T08:15:09.648Z,1.17
2019-05-12T08:17:40.171Z,11.10
2019-05-12T08:20:13.594Z,2.50
2019-05-12T08:22:45.993Z,3.73
2019-05-12T08:25:18.898Z,7.03
2019-05-12T08:27:52.656Z,2.53
2019-05-12T08:30:40.373Z,3.20
2019-05-12T08:33:10.263Z,1.30
2019-05-12T08:35:43.857Z,1.40
2019-05-12T08:38:15.922Z,1.40
2019-05-12T08:40:50.819Z,1.30
2019-05-12T08:43:24.113Z,1.30
2019-05-12T08:46:00.245Z,6.93
2019-05-12T08:48:29.458Z,9.63
2019-05-12T08:51:05.350Z,0.80
2019-05-12T08:53:35.648Z,1.40
2019-05-12T08:56:13.322Z,0.90
2019-05-12T08:58:50.366Z,1.00
2019-05-12T09:01:20.223Z,0.85
2019-05-12T09:03:50.061Z,0.90
2019-05-12T09:06:23.734Z,0.93
2019-05-12T09:08:56.738Z,1.10
2019-05-12T09:11:28.729Z,0.70
2019-05-12T09:14:03.614Z,0.80
2019-05-12T09:16:35.902Z,0.80
2019-05-12T09:19:10.110Z,0.93
2019-05-12T09:21:44.251Z,0.75
2019-05-12T09:24:21.841Z,1.17
2019-05-12T09:26:50.264Z,1.22
2019-05-12T09:29:25.192Z,1.00
2019-05-12T09:31:59.234Z,1.10
2019-05-12T09:34:31.128Z,1.02
2019-05-12T09:37:04.264Z,0.73
2019-05-12T09:39:42.546Z,0.90
2019-05-12T09:42:10.396Z,0.78
2019-05-12T09:44:43.928Z,1.00
2019-05-12T09:47:23.069Z,1.20
2019-05-12T09:49:50.971Z,1.20
2019-05-12T09:52:27.139Z,1.00
2019-05-12T09:54:57.339Z,1.03
2019-05-12T09:57:32.429Z,1.00
2019-05-12T10:00:06.804Z,0.90
2019-05-12T10:02:39.278Z,0.80
2019-05-12T10:05:14.221Z,0.80
2019-05-12T10:07:45.587Z,1.40
2019-05-12T10:10:18.443Z,16.90
2019-05-12T10:12:50.691Z,9.33
2019-05-12T10:15:41.658Z,4.27
2019-05-12T10:18:14.378Z,2.40
2019-05-12T10:20:46.706Z,2.33
2019-05-12T10:23:21.604Z,3.50
2019-05-12T10:25:53.832Z,2.53
2019-05-12T10:28:25.843Z,2.00
2019-05-12T10:30:58.118Z,1.70
2019-05-12T10:33:30.284Z,2.33
2019-05-12T10:36:06.864Z,1.70
2019-05-12T10:38:37.391Z,1.50
2019-05-12T10:41:09.772Z,2.00
2019-05-12T10:43:43.342Z,10.97
2019-05-12T10:46:18.376Z,13.37
2019-05-12T10:48:49.952Z,5.23
2019-05-12T10:51:23.926Z,4.17
2019-05-12T10:54:05.574Z,13.77
2019-05-12T10:56:30.486Z,5.73
2019-05-12T10:59:04.247Z,4.97
2019-05-12T11:01:38.370Z,2.30
2019-05-12T11:04:10.523Z,2.50
2019-05-12T11:06:48.397Z,3.83
2019-05-12T11:09:21.349Z,3.17
2019-05-12T11:11:53.970Z,2.77
2019-05-12T11:14:30.310Z,2.00
2019-05-12T11:17:02.236Z,1.40
2019-05-12T11:19:35.227Z,2.60
2019-05-12T11:22:07.320Z,5.57
2019-05-12T11:24:39.566Z,4.23
2019-05-12T11:27:13.453Z,2.67
2019-05-12T11:29:48.724Z,2.13
2019-05-12T11:32:19.388Z,1.93
2019-05-12T11:34:53.624Z,11.35
2019-05-12T11:37:29.268Z,3.93
2019-05-12T11:40:01.384Z,3.13
2019-05-12T11:42:33.741Z,4.90
2019-05-12T11:45:06.235Z,7.93
2019-05-12T11:47:38.545Z,2.83
2019-05-12T11:50:13.051Z,2.27
2019-05-12T11:52:46.060Z,2.50
2019-05-12T11:55:36.610Z,2.60
2019-05-12T11:58:11.450Z,1.90
2019-05-12T12:00:45.943Z,3.67
2019-05-12T12:03:18.467Z,1.80
2019-05-12T12:05:50.926Z,2.10
2019-05-12T12:08:26.405Z,2.00
2019-05-12T12:10:56.762Z,1.67
2019-05-12T12:13:31.081Z,1.83
2019-05-12T12:16:06.870Z,1.83
2019-05-12T12:18:36.977Z,2.10
2019-05-12T12:21:09.195Z,1.90
2019-05-12T12:23:46.053Z,2.27
2019-05-12T12:26:30.014Z,1.80
2019-05-12T12:28:59.777Z,2.00
2019-05-12T12:31:48.992Z,2.10
2019-05-12T12:34:25.491Z,2.27
2019-05-12T12:36:57.336Z,2.20
2019-05-12T12:39:29.499Z,2.20
2019-05-12T12:42:01.585Z,2.10
2019-05-12T12:44:34.150Z,2.07
2019-05-12T12:47:06.838Z,2.40
2019-05-12T12:49:39.941Z,2.47
2019-05-12T12:52:13.954Z,2.67
2019-05-12T12:54:46.494Z,2.33
2019-05-12T12:57:19.304Z,2.23
2019-05-12T12:59:52.815Z,2.57
2019-05-12T13:02:25.172Z,2.53
2019-05-12T13:04:57.902Z,2.90
2019-05-12T13:07:30.282Z,2.73
2019-05-12T13:10:08.223Z,2.40
2019-05-12T13:12:36.374Z,2.83
2019-05-12T13:15:09.364Z,6.73
2019-05-12T13:17:44.254Z,3.27
2019-05-12T13:20:16.328Z,3.10
2019-05-12T13:22:48.516Z,3.13
2019-05-12T13:25:20.689Z,3.43
2019-05-12T13:27:53.448Z,3.83
2019-05-12T13:30:25.734Z,3.90
2019-05-12T13:32:57.863Z,3.60
2019-05-12T13:35:29.800Z,3.73
2019-05-12T13:38:02.309Z,3.83
2019-05-12T13:40:38.963Z,3.60
2019-05-12T13:43:09.194Z,3.23
2019-05-12T13:45:43.971Z,3.80
2019-05-12T13:48:19.786Z,4.63
2019-05-12T13:50:50.120Z,4.33
2019-05-12T13:53:24.203Z,4.20
2019-05-12T13:55:56.362Z,3.57
2019-05-12T13:58:33.620Z,4.13
2019-05-12T14:01:13.554Z,3.97
2019-05-12T14:03:39.839Z,4.40
2019-05-12T14:06:09.972Z,4.43
2019-05-12T14:08:44.407Z,5.20
2019-05-12T14:11:18.931Z,3.70
2019-05-12T14:13:51.132Z,4.47
2019-05-12T14:16:23.992Z,10.90
2019-05-12T14:19:00.363Z,4.80
2019-05-12T14:21:33.078Z,4.50
2019-05-12T14:24:05.184Z,5.60
2019-05-12T14:26:39.448Z,4.40
2019-05-12T14:29:13.736Z,6.30
2019-05-12T14:31:54.446Z,6.63
2019-05-12T14:34:20.979Z,4.40
2019-05-12T14:37:04.929Z,4.27
2019-05-12T14:39:27.357Z,3.47
2019-05-12T14:41:59.853Z,3.67
2019-05-12T14:44:35.967Z,3.33
2019-05-12T14:47:06.461Z,3.00
2019-05-12T14:49:38.357Z,3.10
2019-05-12T14:52:10.899Z,3.60
2019-05-12T14:54:43.652Z,2.77
2019-05-12T14:57:38.032Z,3.60
2019-05-12T15:00:11.378Z,3.03
2019-05-12T15:02:44.841Z,2.70
2019-05-12T15:05:16.970Z,2.60
2019-05-12T15:07:53.452Z,2.27
2019-05-12T15:10:23.526Z,3.00
2019-05-12T15:12:55.480Z,2.23
2019-05-12T15:15:27.806Z,2.30
2019-05-12T15:18:03.117Z,1.93
2019-05-12T15:20:34.400Z,2.30
2019-05-12T15:23:06.471Z,2.40
2019-05-12T15:25:38.545Z,2.20
2019-05-12T15:28:10.497Z,1.70
2019-05-12T15:30:43.654Z,2.00
2019-05-12T15:33:16.027Z,1.43
2019-05-12T15:35:47.986Z,1.57
2019-05-12T15:38:20.154Z,1.50
2019-05-12T15:40:53.827Z,1.40
2019-05-12T15:43:26.379Z,2.63
2019-05-12T15:45:59.787Z,1.13
2019-05-12T15:48:34.216Z,1.40
2019-05-12T15:51:08.591Z,1.30
2019-05-12T15:53:39.038Z,1.40
2019-05-12T15:56:16.530Z,1.10
2019-05-12T15:58:44.307Z,1.50
2019-05-12T16:01:17.030Z,1.43
2019-05-12T16:03:48.930Z,0.87
2019-05-12T16:06:30.362Z,1.30
2019-05-12T16:09:21.096Z,1.40
2019-05-12T16:11:53.691Z,1.30
2019-05-12T16:14:30.535Z,1.20
2019-05-12T16:17:06.606Z,1.60
2019-05-12T16:19:38.949Z,1.10
2019-05-12T16:22:11.053Z,1.50
2019-05-12T16:24:48.340Z,1.80
2019-05-12T16:27:17.236Z,1.50
2019-05-12T16:29:50.131Z,2.67
2019-05-12T16:32:27.122Z,11.37
2019-05-12T16:34:56.324Z,10.40
2019-05-12T16:37:31.310Z,3.73
2019-05-12T16:40:04.478Z,4.20
2019-05-12T16:42:40.947Z,5.13
2019-05-12T16:45:13.945Z,13.97
2019-05-12T16:47:45.841Z,5.83
2019-05-12T16:50:24.764Z,2.30
2019-05-12T16:52:53.465Z,2.20
2019-05-12T16:55:24.829Z,2.10
2019-05-12T16:57:56.992Z,2.60
2019-05-12T17:00:31.123Z,2.30
2019-05-12T17:03:03.766Z,2.93
2019-05-12T17:05:36.253Z,3.67
2019-05-12T17:08:08.020Z,3.80
2019-05-12T17:10:39.910Z,4.43
2019-05-12T17:13:13.722Z,3.63
2019-05-12T17:15:48.744Z,2.73
2019-05-12T17:18:18.906Z,3.33
2019-05-12T17:20:51.098Z,3.30
2019-05-12T17:23:24.672Z,3.77
2019-05-12T17:25:56.482Z,2.70
2019-05-12T17:28:28.326Z,7.30
2019-05-12T17:31:00.099Z,9.40
2019-05-12T17:33:33.730Z,6.83
2019-05-12T17:36:11.766Z,5.07
2019-05-12T17:38:38.959Z,6.07
2019-05-12T17:41:10.823Z,4.33
2019-05-12T17:43:54.748Z,5.13
2019-05-12T17:46:18.277Z,4.40
2019-05-12T17:48:50.040Z,11.50
2019-05-12T17:51:26.685Z,7.60
2019-05-12T17:53:55.419Z,4.13
2019-05-12T17:56:34.177Z,4.30
2019-05-12T17:59:00.551Z,3.20
2019-05-12T18:01:35.389Z,2.83
2019-05-12T18:04:06.124Z,4.17
2019-05-12T18:06:37.913Z,3.53
2019-05-12T18:09:15.660Z,5.77
2019-05-12T18:11:46.063Z,3.77
2019-05-12T18:14:17.784Z,3.20
2019-05-12T18:16:55.606Z,6.77
2019-05-12T18:19:24.228Z,8.50
2019-05-12T18:22:03.233Z,5.43
2019-05-12T18:24:30.552Z,2.70
2019-05-12T18:27:06.722Z,3.33
2019-05-12T18:29:36.359Z,3.80
2019-05-12T18:32:08.753Z,6.50
2019-05-12T18:34:41.370Z,3.57
2019-05-12T18:37:13.739Z,2.70
2019-05-12T18:39:46.131Z,3.00
2019-05-12T18:42:18.083Z,2.57
2019-05-12T18:44:51.446Z,2.97
2019-05-12T18:47:31.765Z,2.90
2019-05-12T18:49:57.935Z,2.80
2019-05-12T18:52:39.319Z,3.03
2019-05-12T18:55:03.696Z,2.67
2019-05-12T18:57:39.172Z,2.80
2019-05-12T19:00:18.425Z,4.43
2019-05-12T19:02:51.339Z,2.63
2019-05-12T19:05:30.360Z,5.00
2019-05-12T19:07:57.906Z,4.50
2019-05-12T19:10:30.334Z,2.70
2019-05-12T19:13:06.461Z,8.73
2019-05-12T19:15:36.705Z,3.07
2019-05-12T19:18:08.914Z,2.57
2019-05-12T19:20:43.169Z,2.60
2019-05-12T19:23:15.152Z,2.23
2019-05-12T19:25:47.348Z,2.20
2019-05-12T19:28:20.104Z,2.07
2019-05-12T19:30:54.647Z,2.20
2019-05-12T19:33:26.487Z,2.00
2019-05-12T19:36:04.072Z,2.93
2019-05-12T19:38:34.597Z,2.60
2019-05-12T19:41:07.244Z,2.40
2019-05-12T19:43:44.425Z,2.70
2019-05-12T19:46:13.684Z,2.00
2019-05-12T19:48:49.674Z,3.53
2019-05-12T19:51:24.473Z,8.10
2019-05-12T19:53:53.804Z,11.83
2019-05-12T19:56:34.250Z,3.00
2019-05-12T19:59:00.152Z,2.30
2019-05-12T20:01:34.291Z,2.30
2019-05-12T20:04:05.907Z,2.37
2019-05-12T20:06:37.941Z,5.80
2019-05-12T20:09:11.194Z,9.17
2019-05-12T20:11:44.101Z,6.03
2019-05-12T20:14:21.286Z,3.57
2019-05-12T20:16:50.741Z,2.67
2019-05-12T20:19:25.913Z,2.63
2019-05-12T20:21:58.673Z,2.30
2019-05-12T20:24:30.915Z,2.90
2019-05-12T20:27:04.057Z,2.57
2019-05-12T20:29:37.747Z,2.40
2019-05-12T20:32:09.800Z,2.80
2019-05-12T20:34:49.259Z,2.60
2019-05-12T20:37:16.899Z,13.77
2019-05-12T20:39:51.099Z,10.27
2019-05-12T20:42:24.812Z,4.17
2019-05-12T20:45:02.390Z,4.07
2019-05-12T20:47:33.709Z,2.60
2019-05-12T20:50:05.736Z,3.07
2019-05-12T20:52:39.543Z,2.57
2019-05-12T20:55:14.571Z,2.43
2019-05-12T20:57:53.819Z,2.20
2019-05-12T21:00:21.081Z,2.33
2019-05-12T21:02:54.022Z,2.50
2019-05-12T21:05:26.271Z,2.30
2019-05-12T21:08:05.374Z,2.40
2019-05-12T21:10:34.072Z,2.43
2019-05-12T21:13:06.213Z,2.87
2019-05-12T21:15:42.769Z,2.37
2019-05-12T21:18:14.460Z,2.53
2019-05-12T21:20:52.353Z,2.60
2019-05-12T21:23:20.513Z,2.70
2019-05-12T21:25:57.935Z,2.30
2019-05-12T21:28:27.009Z,6.60
2019-05-12T21:30:59.318Z,4.10
2019-05-12T21:33:36.489Z,6.53
2019-05-12T21:36:05.192Z,5.10
2019-05-12T21:38:37.283Z,2.30
2019-05-12T21:41:10.369Z,2.90
2019-05-12T21:43:43.760Z,2.93
2019-05-12T21:46:16.010Z,2.87
2019-05-12T21:48:48.870Z,2.50
2019-05-12T21:51:23.319Z,2.50
2019-05-12T21:53:56.209Z,3.17
2019-05-12T21:56:28.448Z,2.30
2019-05-12T21:59:00.327Z,2.40
2019-05-12T22:01:35.065Z,2.70
2019-05-12T22:04:05.712Z,2.37
2019-05-12T22:06:37.558Z,2.60
2019-05-12T22:09:10.823Z,2.47
2019-05-12T22:11:50.499Z,2.77
2019-05-12T22:14:16.344Z,2.57
2019-05-12T22:16:50.509Z,2.50
2019-05-12T22:19:22.248Z,2.50
2019-05-12T22:21:53.970Z,2.60
2019-05-12T22:24:33.837Z,2.73
2019-05-12T22:27:01.969Z,2.77
2019-05-12T22:29:34.239Z,2.20
2019-05-12T22:32:06.051Z,2.30
2019-05-12T22:34:41.985Z,2.80
2019-05-12T22:37:13.594Z,2.60
2019-05-12T22:39:44.767Z,2.50
2019-05-12T22:42:21.532Z,2.50
2019-05-12T22:44:52.967Z,2.07
2019-05-12T22:47:24.169Z,2.67
2019-05-12T22:49:57.099Z,2.60
2019-05-12T22:52:29.257Z,2.50
2019-05-12T22:55:03.519Z,2.60
2019-05-12T22:57:39.953Z,2.43
2019-05-12T23:00:13.476Z,2.20
2019-05-12T23:02:44.664Z,2.20
2019-05-12T23:05:20.406Z,2.43
2019-05-12T23:07:50.083Z,2.20
2019-05-12T23:10:22.146Z,2.50
2019-05-12T23:12:56.982Z,2.30
2019-05-12T23:15:27.507Z,2.27
2019-05-12T23:17:59.523Z,2.23
2019-05-12T23:20:33.367Z,2.43
2019-05-12T23:23:08.943Z,2.10
2019-05-12T23:25:38.488Z,2.00
2019-05-12T23:28:10.615Z,2.50
2019-05-12T23:30:48.470Z,2.30
2019-05-12T23:33:16.087Z,2.00
2019-05-12T23:35:47.946Z,2.20
2019-05-12T23:38:21.110Z,2.10
2019-05-12T23:40:53.761Z,2.07
2019-05-12T23:43:25.781Z,2.30
2019-05-12T23:45:57.505Z,1.77
2019-05-12T23:48:29.288Z,2.20
2019-05-12T23:51:03.624Z,1.80
2019-05-12T23:53:34.518Z,2.13
2019-05-12T23:56:06.234Z,2.13
2019-05-12T23:58:37.991Z,2.50
